Time;durP1;ratioP1;P1;durP2;ratioP2;P2;SDS_P1;SDS_P2;PMS_P1;PMS_P2;Temp;Humidity;BMP_temperature;BMP_pressure;BME280_temperature;BME280_humidity;BME280_pressure;Samples;Min_cycle;Max_cycle;Signal;HPM_P1;HPM_P2
2021/10/09 00:02:09;;;;;;;;;;;12.90;99.90;;;;;;1874607;75;20229;-70
2021/10/09 00:04:35;;;;;;;;;;;12.90;99.90;;;;;;1875072;76;20195;-70
2021/10/09 00:07:02;;;;;;;;;;;12.90;99.90;;;;;;1875062;76;20476;-71
2021/10/09 00:09:29;;;;;;;;;;;12.80;99.90;;;;;;1875282;76;20175;-71
2021/10/09 00:11:56;;;;;;;;;;;12.80;99.90;;;;;;1874946;76;20252;-71
2021/10/09 00:14:23;;;;;;;;;;;12.70;99.90;;;;;;1873857;76;20237;-70
2021/10/09 00:16:50;;;;;;;;;;;12.70;99.90;;;;;;1874984;76;20214;-71
2021/10/09 00:19:16;;;;;;;;;;;12.70;99.90;;;;;;1873078;76;20225;-70
2021/10/09 00:21:44;;;;;;;;;;;12.70;99.90;;;;;;1874533;76;20127;-70
2021/10/09 00:24:12;;;;;;;;;;;12.70;99.90;;;;;;1875174;76;20519;-70
2021/10/09 00:26:39;;;;;;;;;;;12.70;99.90;;;;;;1855876;76;20181;-70
2021/10/09 00:29:05;;;;;;;;;;;12.60;99.90;;;;;;1874741;76;20546;-70
2021/10/09 00:31:32;;;;;;;;;;;12.60;99.90;;;;;;1873955;76;20195;-70
2021/10/09 00:33:59;;;;;;;;;;;12.60;99.90;;;;;;1875114;76;20124;-69
2021/10/09 00:36:26;;;;;;;;;;;12.60;99.90;;;;;;1877305;75;20170;-70
2021/10/09 00:38:54;;;;;;;;;;;12.50;99.90;;;;;;1875067;76;20209;-71
2021/10/09 00:41:21;;;;;;;;;;;12.50;99.90;;;;;;1874552;76;20190;-70
2021/10/09 00:43:48;;;;;;;;;;;12.50;99.90;;;;;;1872550;76;20171;-70
2021/10/09 00:46:15;;;;;;;;;;;12.50;99.90;;;;;;1875088;76;20194;-70
2021/10/09 00:48:42;;;;;;;;;;;12.50;99.90;;;;;;1873529;76;20421;-70
2021/10/09 00:51:08;;;;;;;;;;;12.40;99.90;;;;;;1873227;76;20507;-70
2021/10/09 00:53:37;;;;;;;;;;;12.50;99.90;;;;;;1875906;75;20170;-69
2021/10/09 00:56:04;;;;;;;;;;;12.40;99.90;;;;;;1873409;76;20159;-69
2021/10/09 00:58:31;;;;;;;;;;;12.40;99.90;;;;;;1875361;76;20188;-69
2021/10/09 01:00:58;;;;;;;;;;;12.40;99.90;;;;;;1874793;76;20210;-69
2021/10/09 01:03:25;;;;;;;;;;;12.30;99.90;;;;;;1875134;76;21010;-69
2021/10/09 01:05:52;;;;;;;;;;;12.20;99.90;;;;;;1874019;76;20174;-69
2021/10/09 01:08:18;;;;;;;;;;;12.30;99.90;;;;;;1878538;75;20206;-69
2021/10/09 01:10:45;;;;;;;;;;;12.20;99.90;;;;;;1875110;75;20437;-70
2021/10/09 01:13:12;;;;;;;;;;;12.20;99.90;;;;;;1874762;76;20175;-69
2021/10/09 01:15:39;;;;;;;;;;;12.20;99.90;;;;;;1874292;76;20412;-69
2021/10/09 01:18:13;;;;;;;;;;;12.10;99.90;;;;;;1875121;76;20260;-69
2021/10/09 01:20:47;;;;;;;;;;;12.20;99.90;;;;;;1875192;76;20163;-70
2021/10/09 01:23:14;;;;;;;;;;;12.10;99.90;;;;;;1871861;76;20507;-69
2021/10/09 01:25:41;;;;;;;;;;;12.10;99.90;;;;;;1873494;75;20131;-69
2021/10/09 01:28:08;;;;;;;;;;;12.10;99.90;;;;;;1875028;76;20206;-70
2021/10/09 01:30:35;;;;;;;;;;;12.00;99.90;;;;;;1875204;76;20416;-69
2021/10/09 01:33:03;;;;;;;;;;;12.00;99.90;;;;;;1872906;76;20479;-70
2021/10/09 01:35:30;;;;;;;;;;;12.00;99.90;;;;;;1872550;76;20492;-70
2021/10/09 01:37:57;;;;;;;;;;;11.90;99.90;;;;;;1875475;76;20223;-70
2021/10/09 01:40:23;;;;;;;;;;;11.90;99.90;;;;;;1874679;76;20162;-70
2021/10/09 01:42:50;;;;;;;;;;;11.90;99.90;;;;;;1873108;76;20174;-69
2021/10/09 01:45:17;;;;;;;;;;;11.90;99.90;;;;;;1873726;76;20178;-69
2021/10/09 01:47:44;;;;;;;;;;;11.80;99.90;;;;;;1874917;76;20206;-70
2021/10/09 01:50:11;;;;;;;;;;;11.80;99.90;;;;;;1875290;76;20477;-69
2021/10/09 01:52:38;;;;;;;;;;;11.80;99.90;;;;;;1875127;76;20567;-69
2021/10/09 01:55:05;;;;;;;;;;;11.80;99.90;;;;;;1873091;76;20190;-71
2021/10/09 01:57:32;;;;;;;;;;;11.70;99.90;;;;;;1873032;76;20221;-71
2021/10/09 01:59:59;;;;;;;;;;;11.70;99.90;;;;;;1874277;76;20512;-71
2021/10/09 02:02:25;;;;;;;;;;;11.60;99.90;;;;;;1875174;76;20108;-70
2021/10/09 02:04:52;;;;;;;;;;;11.60;99.90;;;;;;1875291;76;20472;-71
2021/10/09 02:07:22;;;;;;;;;;;11.60;99.90;;;;;;1875129;76;20187;-72
2021/10/09 02:09:47;;;;;;;;;;;11.50;99.90;;;;;;1874969;76;20166;-71
2021/10/09 02:12:14;;;;;;;;;;;11.50;99.90;;;;;;1873427;76;20174;-71
2021/10/09 02:15:05;;;;;;;;;;;11.40;99.90;;;;;;1899412;73;20213;-70
2021/10/09 02:25:53;;;;;;;;;;;11.20;99.90;;;;;;1915675;73;20192;-67
2021/10/09 02:28:01;;;;;;;;;;;11.10;99.90;;;;;;1910844;73;20212;-68
2021/10/09 02:30:28;;;;;;;;;;;11.10;99.90;;;;;;1922756;73;20404;-68
2021/10/09 02:32:54;;;;;;;;;;;11.10;99.90;;;;;;1919912;73;20204;-67
2021/10/09 02:35:21;;;;;;;;;;;11.00;99.90;;;;;;1918667;73;20203;-67
2021/10/09 02:37:48;;;;;;;;;;;10.90;99.90;;;;;;1918061;73;20133;-67
2021/10/09 02:40:15;;;;;;;;;;;11.00;99.90;;;;;;1914647;73;20167;-67
2021/10/09 02:42:42;;;;;;;;;;;11.00;99.90;;;;;;1913566;73;20532;-67
2021/10/09 02:45:09;;;;;;;;;;;11.00;99.90;;;;;;1912613;73;20148;-69
2021/10/09 02:47:35;;;;;;;;;;;10.90;99.90;;;;;;1914770;73;20206;-69
2021/10/09 02:50:03;;;;;;;;;;;10.90;99.90;;;;;;1917773;73;20134;-67
2021/10/09 02:52:30;;;;;;;;;;;10.80;99.90;;;;;;1917408;73;20509;-66
2021/10/09 02:54:57;;;;;;;;;;;10.90;99.90;;;;;;1917097;73;20454;-66
2021/10/09 02:57:24;;;;;;;;;;;10.90;99.90;;;;;;1919313;73;20169;-67
2021/10/09 02:59:51;;;;;;;;;;;10.80;99.90;;;;;;1924050;73;20465;-67
2021/10/09 03:02:18;;;;;;;;;;;10.70;99.90;;;;;;1917901;73;20202;-67
2021/10/09 03:04:44;;;;;;;;;;;10.60;99.90;;;;;;1922169;73;20520;-66
2021/10/09 03:07:11;;;;;;;;;;;10.60;99.90;;;;;;1921809;73;20222;-66
2021/10/09 03:09:38;;;;;;;;;;;10.60;99.90;;;;;;1919801;73;20196;-68
2021/10/09 03:12:05;;;;;;;;;;;10.60;99.90;;;;;;1919887;73;20118;-67
2021/10/09 03:14:32;;;;;;;;;;;10.60;99.90;;;;;;1915889;73;20209;-67
2021/10/09 03:16:58;;;;;;;;;;;10.60;99.90;;;;;;1918243;73;20332;-67
2021/10/09 03:19:25;;;;;;;;;;;10.60;99.90;;;;;;1916444;73;20438;-67
2021/10/09 03:21:52;;;;;;;;;;;10.60;99.90;;;;;;1914798;73;20208;-66
2021/10/09 03:24:19;;;;;;;;;;;10.50;99.90;;;;;;1912246;73;20504;-67
2021/10/09 03:26:46;;;;;;;;;;;10.40;99.90;;;;;;1914793;73;20124;-67
2021/10/09 03:29:12;;;;;;;;;;;10.40;99.90;;;;;;1914965;73;20430;-67
2021/10/09 03:31:39;;;;;;;;;;;10.40;99.90;;;;;;1917272;73;20208;-68
2021/10/09 03:34:06;;;;;;;;;;;10.30;99.90;;;;;;1914308;73;20452;-66
2021/10/09 03:36:33;;;;;;;;;;;10.30;99.90;;;;;;1921016;73;20218;-68
2021/10/09 03:39:00;;;;;;;;;;;10.30;99.90;;;;;;1918009;73;20202;-68
2021/10/09 03:41:27;;;;;;;;;;;10.40;99.90;;;;;;1920649;73;20487;-69
2021/10/09 03:43:54;;;;;;;;;;;10.50;99.90;;;;;;1917379;73;20180;-68
2021/10/09 03:46:29;;;;;;;;;;;10.50;99.90;;;;;;1924338;73;20452;-69
2021/10/09 03:49:02;;;;;;;;;;;10.40;99.90;;;;;;1925690;72;20178;-70
2021/10/09 03:54:08;;;;;;;;;;;10.30;99.90;;;;;;1918356;73;20128;-67
2021/10/09 03:56:35;;;;;;;;;;;10.20;99.90;;;;;;1915886;73;20163;-68
2021/10/09 03:59:06;;;;;;;;;;;10.30;99.90;;;;;;1915333;73;20219;-68
2021/10/09 04:01:30;;;;;;;;;;;10.20;99.90;;;;;;1926182;73;20125;-69
2021/10/09 04:03:57;;;;;;;;;;;10.10;99.90;;;;;;1920213;73;20304;-68
2021/10/09 04:06:24;;;;;;;;;;;10.30;99.90;;;;;;1923947;73;20407;-68
2021/10/09 04:08:51;;;;;;;;;;;10.20;99.90;;;;;;1923061;73;20179;-67
2021/10/09 04:11:17;;;;;;;;;;;10.20;99.90;;;;;;1918096;73;20562;-68
2021/10/09 04:13:44;;;;;;;;;;;10.20;99.90;;;;;;1923621;72;20214;-68
2021/10/09 04:16:11;;;;;;;;;;;10.10;99.90;;;;;;1915606;73;20578;-68
2021/10/09 04:18:38;;;;;;;;;;;10.20;99.90;;;;;;1922440;73;20231;-69
2021/10/09 04:21:04;;;;;;;;;;;10.10;99.90;;;;;;1920225;73;20232;-69
2021/10/09 04:23:31;;;;;;;;;;;10.10;99.90;;;;;;1915500;73;20221;-69
2021/10/09 04:25:58;;;;;;;;;;;10.10;99.90;;;;;;1918213;73;20178;-69
2021/10/09 04:28:25;;;;;;;;;;;10.10;99.90;;;;;;1914890;73;20208;-68
2021/10/09 04:30:52;;;;;;;;;;;10.10;99.90;;;;;;1917660;73;20218;-67
2021/10/09 04:33:19;;;;;;;;;;;10.10;99.90;;;;;;1918579;73;20233;-68
2021/10/09 04:35:46;;;;;;;;;;;10.00;99.90;;;;;;1915368;73;20198;-68
2021/10/09 04:38:13;;;;;;;;;;;10.10;99.90;;;;;;1914914;73;20114;-67
2021/10/09 04:40:39;;;;;;;;;;;10.00;99.90;;;;;;1917936;73;20157;-67
2021/10/09 04:43:06;;;;;;;;;;;10.00;99.90;;;;;;1919019;73;20185;-68
2021/10/09 04:45:33;;;;;;;;;;;10.10;99.90;;;;;;1921932;72;20201;-68
2021/10/09 04:48:01;;;;;;;;;;;10.10;99.90;;;;;;1920344;73;20174;-68
2021/10/09 04:50:28;;;;;;;;;;;10.10;99.90;;;;;;1921581;73;20184;-69
2021/10/09 04:52:55;;;;;;;;;;;10.10;99.90;;;;;;1920751;73;20168;-68
2021/10/09 04:55:22;;;;;;;;;;;10.10;99.90;;;;;;1919859;73;20506;-66
2021/10/09 04:57:49;;;;;;;;;;;10.10;99.90;;;;;;1916285;73;20171;-68
2021/10/09 05:00:16;;;;;;;;;;;10.10;99.90;;;;;;1916553;73;20126;-68
2021/10/09 05:02:42;;;;;;;;;;;10.10;99.90;;;;;;1921837;73;20179;-67
2021/10/09 05:05:09;;;;;;;;;;;10.00;99.90;;;;;;1918176;73;20206;-68
2021/10/09 05:07:36;;;;;;;;;;;10.00;99.90;;;;;;1919558;73;20787;-68
2021/10/09 05:10:04;;;;;;;;;;;10.00;99.90;;;;;;1923712;73;20168;-68
2021/10/09 05:12:31;;;;;;;;;;;10.00;99.90;;;;;;1917850;73;20258;-68
2021/10/09 05:14:58;;;;;;;;;;;10.00;99.90;;;;;;1921733;73;20128;-68
2021/10/09 05:17:25;;;;;;;;;;;10.00;99.90;;;;;;1918088;73;20185;-68
2021/10/09 05:19:51;;;;;;;;;;;10.00;99.90;;;;;;1922434;73;20236;-68
2021/10/09 05:22:18;;;;;;;;;;;10.00;99.90;;;;;;1931154;73;20154;-68
2021/10/09 05:24:48;;;;;;;;;;;10.00;99.90;;;;;;1922986;72;20191;-68
2021/10/09 05:27:13;;;;;;;;;;;10.00;99.90;;;;;;1921092;73;20473;-69
2021/10/09 05:29:40;;;;;;;;;;;10.00;99.90;;;;;;1919526;73;20125;-69
2021/10/09 05:32:07;;;;;;;;;;;10.00;99.90;;;;;;1921608;73;20458;-67
2021/10/09 05:34:34;;;;;;;;;;;9.90;99.90;;;;;;1920343;72;20442;-68
2021/10/09 05:37:02;;;;;;;;;;;9.80;99.90;;;;;;1916600;73;20485;-67
2021/10/09 05:39:29;;;;;;;;;;;9.80;99.90;;;;;;1917891;73;20515;-67
2021/10/09 05:41:55;;;;;;;;;;;9.70;99.90;;;;;;1917912;73;20221;-67
2021/10/09 05:44:22;;;;;;;;;;;9.80;99.90;;;;;;1919430;73;20540;-69
2021/10/09 05:46:49;;;;;;;;;;;9.70;99.90;;;;;;1919071;73;20219;-66
2021/10/09 05:49:16;;;;;;;;;;;9.70;99.90;;;;;;1920957;73;20208;-68
2021/10/09 05:51:54;;;;;;;;;;;9.60;99.90;;;;;;1922820;73;20212;-69
2021/10/09 05:54:19;;;;;;;;;;;9.70;99.90;;;;;;1921784;73;20203;-69
2021/10/09 05:56:49;;;;;;;;;;;9.60;99.90;;;;;;1920503;73;20391;-68
2021/10/09 06:32:28;;;;;;;;;;;9.40;99.90;;;;;;1921208;73;20385;-67
2021/10/09 06:47:50;;;;;;;;;;;9.60;99.90;;;;;;1916870;73;20226;-69
2021/10/09 07:01:14;;;;;;;;;;;9.80;99.90;;;;;;1922122;73;20191;-68
2021/10/09 07:03:41;;;;;;;;;;;10.10;99.90;;;;;;1921259;73;20195;-68
2021/10/09 07:06:09;;;;;;;;;;;10.20;99.90;;;;;;1917736;73;20190;-68
2021/10/09 07:08:36;;;;;;;;;;;10.20;99.90;;;;;;1919884;73;20642;-74
2021/10/09 07:11:03;;;;;;;;;;;10.20;99.90;;;;;;1922834;73;20215;-73
2021/10/09 07:13:30;;;;;;;;;;;10.20;99.90;;;;;;1919625;73;20125;-74
2021/10/09 07:15:57;;;;;;;;;;;10.30;99.90;;;;;;1921355;73;20214;-73
2021/10/09 07:18:24;;;;;;;;;;;10.30;99.90;;;;;;1920098;73;20229;-73
2021/10/09 07:20:51;;;;;;;;;;;10.40;99.90;;;;;;1917624;73;20176;-73
2021/10/09 07:23:17;;;;;;;;;;;10.40;99.90;;;;;;1920361;73;20188;-73
2021/10/09 07:25:44;;;;;;;;;;;10.40;99.90;;;;;;1920181;73;20212;-73
2021/10/09 07:28:11;;;;;;;;;;;10.50;99.90;;;;;;1919659;73;20116;-73
2021/10/09 07:30:38;;;;;;;;;;;10.60;99.90;;;;;;1916626;73;20171;-73
2021/10/09 07:33:05;;;;;;;;;;;10.70;99.90;;;;;;1915349;73;20211;-73
2021/10/09 07:35:32;;;;;;;;;;;10.80;99.90;;;;;;1920539;72;20177;-73
2021/10/09 07:37:58;;;;;;;;;;;10.70;99.90;;;;;;1926887;73;20157;-74
2021/10/09 07:40:25;;;;;;;;;;;10.80;99.90;;;;;;1921669;73;20505;-73
2021/10/09 07:42:52;;;;;;;;;;;10.90;99.90;;;;;;1925229;73;20232;-73
2021/10/09 07:45:19;;;;;;;;;;;10.90;99.90;;;;;;1931767;73;20126;-72
2021/10/09 07:47:46;;;;;;;;;;;10.90;99.90;;;;;;1928802;73;20519;-73
2021/10/09 07:50:13;;;;;;;;;;;11.10;99.90;;;;;;1918308;73;20179;-74
2021/10/09 07:52:41;;;;;;;;;;;11.00;99.90;;;;;;1919374;73;20126;-74
2021/10/09 07:55:09;;;;;;;;;;;11.10;99.90;;;;;;1921178;72;20213;-74
2021/10/09 07:57:35;;;;;;;;;;;11.10;99.90;;;;;;1918632;73;20232;-74
2021/10/09 08:00:03;;;;;;;;;;;11.10;99.90;;;;;;1916835;73;20455;-73
2021/10/09 08:02:32;;;;;;;;;;;11.10;99.90;;;;;;1915565;73;20174;-74
2021/10/09 08:04:59;;;;;;;;;;;11.30;99.90;;;;;;1919745;73;20272;-74
2021/10/09 08:07:26;;;;;;;;;;;11.30;99.90;;;;;;1921324;73;20168;-73
2021/10/09 08:09:52;;;;;;;;;;;11.30;99.90;;;;;;1923397;73;20163;-74
2021/10/09 08:12:19;;;;;;;;;;;11.40;99.90;;;;;;1921423;73;20167;-73
2021/10/09 08:14:46;;;;;;;;;;;11.50;99.90;;;;;;1924031;72;20196;-78
2021/10/09 08:17:13;;;;;;;;;;;11.50;99.90;;;;;;1888394;74;20180;-79
2021/10/09 08:19:40;;;;;;;;;;;11.50;99.90;;;;;;1891327;74;20202;-78
2021/10/09 08:22:10;;;;;;;;;;;11.60;99.90;;;;;;1888585;74;20251;-79
2021/10/09 08:25:19;;;;;;;;;;;11.60;99.90;;;;;;1890584;74;20207;-75
2021/10/09 08:27:12;;;;;;;;;;;11.70;99.90;;;;;;1869924;74;20602;-76
2021/10/09 08:40:32;;;;;;;;;;;11.80;99.90;;;;;;1891542;74;20423;-79
2021/10/09 08:42:58;;;;;;;;;;;11.90;99.90;;;;;;1897691;74;20166;-80
2021/10/09 08:45:25;;;;;;;;;;;11.90;99.90;;;;;;1894511;74;20222;-79
2021/10/09 08:47:52;;;;;;;;;;;12.00;99.90;;;;;;1894079;74;20147;-81
2021/10/09 08:50:19;;;;;;;;;;;12.00;99.90;;;;;;1892001;74;20183;-82
2021/10/09 08:53:00;;;;;;;;;;;11.90;99.90;;;;;;1894356;74;20190;-82
2021/10/09 08:55:28;;;;;;;;;;;12.00;99.90;;;;;;1886207;74;20259;-80
2021/10/09 08:58:00;;;;;;;;;;;12.10;99.90;;;;;;1888131;74;20209;-83
2021/10/09 09:00:40;;;;;;;;;;;12.20;99.90;;;;;;1890277;74;20157;-80
2021/10/09 09:03:15;;;;;;;;;;;12.30;99.90;;;;;;1891416;74;20178;-80
2021/10/09 09:05:51;;;;;;;;;;;12.40;99.90;;;;;;1883430;74;20119;-80
2021/10/09 09:27:53;;;;;;;;;;;12.80;99.90;;;;;;1888773;74;20216;-80
2021/10/09 09:33:23;;;;;;;;;;;13.10;99.90;;;;;;1890399;74;20216;-81
2021/10/09 09:36:04;;;;;;;;;;;13.30;99.90;;;;;;1882596;74;20192;-81
2021/10/09 09:41:20;;;;;;;;;;;13.40;99.90;;;;;;1890752;74;20200;-81
2021/10/09 09:43:47;;;;;;;;;;;13.50;99.90;;;;;;1885816;74;20218;-81
2021/10/09 09:46:19;;;;;;;;;;;13.60;99.90;;;;;;1885905;74;20197;-80
2021/10/09 09:48:46;;;;;;;;;;;13.70;99.90;;;;;;1887216;74;20165;-81
2021/10/09 09:51:14;;;;;;;;;;;13.80;99.90;;;;;;1887327;74;20169;-81
2021/10/09 09:53:43;;;;;;;;;;;14.00;99.90;;;;;;1888408;74;20176;-81
2021/10/09 09:56:10;;;;;;;;;;;14.10;99.90;;;;;;1889857;74;20434;-81
2021/10/09 09:58:41;;;;;;;;;;;14.30;99.90;;;;;;1887404;74;20576;-81
2021/10/09 10:01:08;;;;;;;;;;;14.40;99.90;;;;;;1887918;74;20180;-81
2021/10/09 10:03:36;;;;;;;;;;;14.40;99.90;;;;;;1883814;74;20167;-81
2021/10/09 10:06:03;;;;;;;;;;;14.40;99.90;;;;;;1887202;74;20131;-80
2021/10/09 10:08:30;;;;;;;;;;;14.50;99.90;;;;;;1885857;74;20158;-81
2021/10/09 10:10:58;;;;;;;;;;;14.60;99.90;;;;;;1888742;74;20190;-81
2021/10/09 10:13:27;;;;;;;;;;;14.60;99.90;;;;;;1890932;74;20118;-81
2021/10/09 10:15:54;;;;;;;;;;;14.70;99.90;;;;;;1887863;74;20205;-81
2021/10/09 10:18:28;;;;;;;;;;;14.60;99.90;;;;;;1885590;74;20170;-81
2021/10/09 10:20:55;;;;;;;;;;;14.70;99.90;;;;;;1871174;74;20169;-81
2021/10/09 10:23:24;;;;;;;;;;;14.90;99.90;;;;;;1889150;74;20210;-81
2021/10/09 10:25:50;;;;;;;;;;;15.00;99.90;;;;;;1882012;74;20166;-81
2021/10/09 10:28:21;;;;;;;;;;;15.10;99.90;;;;;;1886436;75;20146;-81
2021/10/09 10:31:03;;;;;;;;;;;15.10;99.90;;;;;;1888607;74;20204;-81
2021/10/09 10:33:36;;;;;;;;;;;15.20;99.90;;;;;;1884151;74;20186;-81
2021/10/09 10:35:59;;;;;;;;;;;15.30;99.90;;;;;;1885504;74;20440;-81
2021/10/09 10:38:34;;;;;;;;;;;15.30;99.90;;;;;;1887136;74;20178;-81
2021/10/09 10:41:04;;;;;;;;;;;15.40;99.90;;;;;;1883503;74;20214;-81
2021/10/09 10:43:33;;;;;;;;;;;15.50;99.90;;;;;;1889724;74;20163;-80
2021/10/09 10:46:02;;;;;;;;;;;15.40;99.90;;;;;;1889993;74;20156;-80
2021/10/09 10:49:37;;;;;;;;;;;15.40;99.90;;;;;;1884352;74;20513;-81
2021/10/09 10:51:32;;;;;;;;;;;15.60;99.90;;;;;;1857959;74;20213;-81
2021/10/09 10:57:00;;;;;;;;;;;15.90;99.90;;;;;;1887101;74;20952;-81
2021/10/09 10:59:34;;;;;;;;;;;16.00;99.90;;;;;;1887021;74;20199;-81
2021/10/09 11:02:10;;;;;;;;;;;16.10;99.90;;;;;;1885949;74;20169;-81
2021/10/09 11:04:43;;;;;;;;;;;16.10;99.90;;;;;;1891223;74;20214;-80
2021/10/09 11:07:08;;;;;;;;;;;16.20;99.90;;;;;;1884848;74;20535;-81
2021/10/09 11:09:37;;;;;;;;;;;16.30;99.90;;;;;;1884187;74;20521;-81
2021/10/09 11:12:04;;;;;;;;;;;16.30;99.90;;;;;;1886463;74;20240;-81
2021/10/09 11:14:31;;;;;;;;;;;16.40;99.90;;;;;;1883364;74;20511;-80
2021/10/09 11:17:05;;;;;;;;;;;16.50;99.90;;;;;;1888749;74;20159;-81
2021/10/09 11:19:47;;;;;;;;;;;16.70;99.90;;;;;;1884129;74;20124;-81
2021/10/09 11:22:15;;;;;;;;;;;16.70;99.90;;;;;;1885718;74;20169;-81
2021/10/09 11:24:49;;;;;;;;;;;16.80;99.90;;;;;;1890607;74;20157;-81
2021/10/09 11:27:17;;;;;;;;;;;16.90;99.90;;;;;;1886721;74;20111;-83
2021/10/09 11:29:45;;;;;;;;;;;16.90;99.90;;;;;;1887031;74;20186;-82
2021/10/09 11:32:18;;;;;;;;;;;17.00;99.90;;;;;;1889312;74;20180;-82
2021/10/09 11:34:54;;;;;;;;;;;17.10;99.90;;;;;;1884651;74;20172;-81
2021/10/09 11:37:20;;;;;;;;;;;17.20;99.90;;;;;;1884781;74;20474;-81
2021/10/09 11:39:48;;;;;;;;;;;17.30;99.90;;;;;;1887967;74;20236;-81
2021/10/09 11:42:20;;;;;;;;;;;17.30;99.90;;;;;;1889556;74;20528;-81
2021/10/09 11:44:51;;;;;;;;;;;17.40;99.90;;;;;;1889729;74;20180;-78
2021/10/09 11:47:36;;;;;;;;;;;17.50;99.90;;;;;;1885716;74;20213;-81
2021/10/09 11:55:32;;;;;;;;;;;17.60;99.90;;;;;;1886363;74;20201;-81
2021/10/09 11:58:00;;;;;;;;;;;17.70;99.90;;;;;;1885906;74;20159;-81
2021/10/09 12:00:31;;;;;;;;;;;17.80;99.90;;;;;;1892643;74;20119;-80
2021/10/09 12:03:00;;;;;;;;;;;17.80;99.90;;;;;;1885351;74;20442;-81
2021/10/09 12:05:33;;;;;;;;;;;17.90;99.90;;;;;;1887094;74;20161;-81
2021/10/09 12:08:18;;;;;;;;;;;18.00;99.90;;;;;;1880021;74;20168;-82
2021/10/09 12:10:40;;;;;;;;;;;18.20;99.90;;;;;;1883966;74;20230;-82
2021/10/09 12:13:07;;;;;;;;;;;18.30;99.80;;;;;;1886304;74;20168;-81
2021/10/09 12:15:34;;;;;;;;;;;18.30;99.90;;;;;;1889278;74;20194;-81
2021/10/09 12:18:02;;;;;;;;;;;18.50;97.60;;;;;;1887595;74;20204;-81
2021/10/09 12:20:29;;;;;;;;;;;18.70;98.00;;;;;;1886255;74;20486;-81
2021/10/09 12:22:57;;;;;;;;;;;18.70;97.30;;;;;;1886969;74;20114;-81
2021/10/09 12:25:28;;;;;;;;;;;18.80;96.80;;;;;;1886743;74;20181;-81
2021/10/09 12:27:55;;;;;;;;;;;18.60;96.20;;;;;;1887445;74;20172;-81
2021/10/09 12:30:24;;;;;;;;;;;18.80;96.90;;;;;;1888154;74;20224;-81
2021/10/09 12:32:51;;;;;;;;;;;18.90;96.30;;;;;;1884672;74;20469;-81
2021/10/09 12:35:21;;;;;;;;;;;19.10;96.10;;;;;;1885038;74;20166;-81
2021/10/09 12:38:08;;;;;;;;;;;19.20;96.80;;;;;;1888513;74;20186;-81
2021/10/09 12:40:41;;;;;;;;;;;19.10;95.70;;;;;;1889592;74;20131;-81
2021/10/09 12:43:10;;;;;;;;;;;19.10;95.50;;;;;;1884802;74;20129;-81
2021/10/09 12:45:38;;;;;;;;;;;19.20;97.00;;;;;;1887437;74;20171;-81
2021/10/09 12:48:05;;;;;;;;;;;19.40;96.30;;;;;;1886479;74;20157;-81
2021/10/09 12:50:34;;;;;;;;;;;19.60;96.80;;;;;;1887100;74;20125;-81
2021/10/09 12:53:01;;;;;;;;;;;19.90;95.80;;;;;;1888444;74;20112;-80
2021/10/09 12:55:30;;;;;;;;;;;20.00;95.80;;;;;;1888529;74;20682;-81
2021/10/09 12:58:01;;;;;;;;;;;20.30;93.70;;;;;;1888844;74;20547;-81
2021/10/09 13:00:29;;;;;;;;;;;20.30;93.00;;;;;;1887752;74;20165;-81
2021/10/09 13:02:57;;;;;;;;;;;20.50;91.40;;;;;;1885644;74;20223;-81
2021/10/09 13:05:25;;;;;;;;;;;20.60;90.10;;;;;;1888985;74;20171;-81
2021/10/09 13:07:52;;;;;;;;;;;20.60;90.20;;;;;;1888213;74;20131;-82
2021/10/09 13:10:20;;;;;;;;;;;20.50;89.00;;;;;;1889207;74;20112;-81
2021/10/09 13:12:48;;;;;;;;;;;20.50;88.50;;;;;;1888911;74;20194;-81
2021/10/09 13:15:18;;;;;;;;;;;20.60;88.90;;;;;;1886729;74;20120;-80
2021/10/09 13:17:46;;;;;;;;;;;20.70;88.40;;;;;;1886788;74;20424;-81
2021/10/09 13:20:13;;;;;;;;;;;20.70;86.90;;;;;;1886736;74;20390;-81
2021/10/09 13:22:40;;;;;;;;;;;20.40;87.00;;;;;;1885930;74;20196;-81
2021/10/09 13:25:07;;;;;;;;;;;20.40;90.80;;;;;;1887307;74;20228;-81
2021/10/09 13:27:33;;;;;;;;;;;20.50;91.00;;;;;;1884086;74;20244;-81
2021/10/09 13:30:00;;;;;;;;;;;20.40;91.50;;;;;;1881720;74;20676;-80
2021/10/09 13:32:27;;;;;;;;;;;20.40;92.20;;;;;;1887344;73;20130;-80
2021/10/09 13:34:54;;;;;;;;;;;20.40;93.20;;;;;;1884311;74;20163;-81
2021/10/09 13:37:23;;;;;;;;;;;20.40;90.00;;;;;;1889189;74;20440;-82
2021/10/09 13:39:52;;;;;;;;;;;20.20;91.40;;;;;;1882988;74;20222;-81
2021/10/09 13:42:18;;;;;;;;;;;20.00;91.00;;;;;;1887315;74;20193;-82
2021/10/09 13:44:45;;;;;;;;;;;19.80;92.80;;;;;;1888569;74;20208;-81
2021/10/09 13:47:12;;;;;;;;;;;19.60;90.90;;;;;;1888190;74;20130;-81
2021/10/09 13:49:39;;;;;;;;;;;19.40;91.70;;;;;;1887320;74;20177;-81
2021/10/09 13:52:07;;;;;;;;;;;19.30;90.90;;;;;;1885214;74;20162;-81
2021/10/09 13:54:34;;;;;;;;;;;19.00;90.30;;;;;;1882693;74;20215;-80
2021/10/09 13:57:00;;;;;;;;;;;19.00;91.10;;;;;;1885856;74;20199;-80
2021/10/09 13:59:28;;;;;;;;;;;19.00;92.20;;;;;;1880856;74;20215;-80
2021/10/09 14:01:55;;;;;;;;;;;19.00;90.00;;;;;;1886189;74;20173;-80
2021/10/09 14:04:22;;;;;;;;;;;18.90;90.50;;;;;;1888512;74;20141;-83
2021/10/09 14:06:49;;;;;;;;;;;19.00;90.70;;;;;;1886934;74;20178;-82
2021/10/09 14:09:16;;;;;;;;;;;19.10;90.50;;;;;;1887278;74;20149;-80
2021/10/09 14:11:43;;;;;;;;;;;19.20;89.90;;;;;;1887659;74;20174;-81
2021/10/09 14:14:10;;;;;;;;;;;19.20;91.10;;;;;;1888446;74;20111;-81
2021/10/09 14:16:36;;;;;;;;;;;19.10;91.60;;;;;;1875115;73;20129;-74
2021/10/09 14:19:03;;;;;;;;;;;19.10;91.60;;;;;;1868363;75;20269;-74
2021/10/09 14:21:30;;;;;;;;;;;19.00;91.20;;;;;;1870317;75;20200;-74
2021/10/09 14:23:58;;;;;;;;;;;18.90;92.30;;;;;;1866476;75;20204;-74
2021/10/09 14:26:24;;;;;;;;;;;18.80;92.50;;;;;;1866511;75;20227;-74
2021/10/09 14:28:51;;;;;;;;;;;18.70;91.50;;;;;;1868746;75;20171;-74
2021/10/09 14:31:18;;;;;;;;;;;18.60;91.80;;;;;;1867724;75;20164;-74
2021/10/09 14:33:45;;;;;;;;;;;18.60;91.60;;;;;;1869416;75;20116;-74
2021/10/09 14:36:12;;;;;;;;;;;18.50;91.10;;;;;;1866045;75;20179;-74
2021/10/09 14:38:38;;;;;;;;;;;18.50;91.60;;;;;;1870310;75;20206;-74
2021/10/09 14:41:06;;;;;;;;;;;18.30;92.50;;;;;;1869359;75;20154;-74
2021/10/09 14:43:34;;;;;;;;;;;18.30;91.50;;;;;;1863953;75;20205;-74
2021/10/09 14:47:07;;;;;;;;;;;18.40;91.30;;;;;;1862543;75;20234;-74
2021/10/09 14:48:38;;;;;;;;;;;18.30;91.90;;;;;;1851445;75;20179;-73
2021/10/09 14:51:27;;;;;;;;;;;18.30;91.50;;;;;;1864125;75;20215;-73
2021/10/09 15:02:10;;;;;;;;;;;17.80;92.60;;;;;;1865063;75;20489;-73
2021/10/09 15:18:25;;;;;;;;;;;17.30;90.10;;;;;;1866033;75;20163;-73
2021/10/09 15:20:50;;;;;;;;;;;17.30;91.40;;;;;;1867279;75;20461;-73
2021/10/09 15:23:16;;;;;;;;;;;17.20;91.60;;;;;;1866975;75;20191;-72
2021/10/09 15:25:44;;;;;;;;;;;17.20;92.70;;;;;;1864006;75;20526;-73
2021/10/09 15:28:12;;;;;;;;;;;17.20;91.50;;;;;;1865158;75;20456;-73
2021/10/09 15:30:39;;;;;;;;;;;17.10;91.40;;;;;;1866112;75;20495;-72
2021/10/09 15:33:05;;;;;;;;;;;17.10;91.00;;;;;;1865730;75;20180;-74
2021/10/09 15:35:33;;;;;;;;;;;17.10;92.10;;;;;;1865751;75;20154;-73
2021/10/09 15:38:01;;;;;;;;;;;17.10;91.70;;;;;;1864910;75;20130;-73
2021/10/09 15:40:28;;;;;;;;;;;17.00;93.10;;;;;;1867066;75;20290;-73
2021/10/09 15:42:55;;;;;;;;;;;17.00;91.80;;;;;;1870207;75;20210;-73
2021/10/09 15:45:21;;;;;;;;;;;16.90;92.70;;;;;;1868157;75;20257;-73
2021/10/09 15:47:50;;;;;;;;;;;16.80;93.20;;;;;;1867883;75;20221;-73
2021/10/09 15:50:19;;;;;;;;;;;16.70;93.60;;;;;;1865369;75;20204;-73
2021/10/09 15:52:46;;;;;;;;;;;16.60;93.70;;;;;;1862068;75;20272;-73
2021/10/09 15:55:14;;;;;;;;;;;16.50;94.70;;;;;;1869246;75;20119;-73
2021/10/09 15:57:41;;;;;;;;;;;16.50;96.50;;;;;;1865624;75;20132;-73
2021/10/09 16:00:08;;;;;;;;;;;16.50;95.40;;;;;;1864417;75;20476;-73
2021/10/09 16:02:36;;;;;;;;;;;16.30;95.40;;;;;;1869376;75;20164;-73
2021/10/09 16:05:03;;;;;;;;;;;16.30;95.60;;;;;;1862689;75;20161;-73
2021/10/09 16:07:33;;;;;;;;;;;16.20;96.30;;;;;;1868501;75;20185;-74
2021/10/09 16:09:59;;;;;;;;;;;16.10;99.90;;;;;;1867889;75;20116;-74
2021/10/09 16:12:25;;;;;;;;;;;16.00;99.90;;;;;;1868577;75;20164;-73
2021/10/09 16:14:52;;;;;;;;;;;15.80;99.90;;;;;;1866710;75;20199;-74
2021/10/09 16:17:21;;;;;;;;;;;15.70;99.90;;;;;;1866267;75;20151;-74
2021/10/09 16:19:47;;;;;;;;;;;15.70;99.90;;;;;;1863384;75;20190;-73
2021/10/09 16:22:14;;;;;;;;;;;15.60;99.90;;;;;;1866580;75;20178;-73
2021/10/09 16:24:41;;;;;;;;;;;15.50;99.90;;;;;;1865058;75;20402;-73
2021/10/09 16:27:08;;;;;;;;;;;15.40;99.90;;;;;;1869857;75;20203;-73
2021/10/09 16:29:35;;;;;;;;;;;15.40;99.90;;;;;;1865411;75;20182;-72
2021/10/09 16:32:01;;;;;;;;;;;15.30;99.90;;;;;;1865999;75;20160;-73
2021/10/09 16:34:28;;;;;;;;;;;15.40;99.90;;;;;;1869113;75;20579;-74
2021/10/09 16:36:58;;;;;;;;;;;15.40;99.90;;;;;;1867290;75;20217;-74
2021/10/09 16:39:25;;;;;;;;;;;15.30;99.90;;;;;;1868540;75;20217;-74